createdAt,value
2017-12-22T00:00:20.923Z,7.39
2017-12-22T00:01:01.547Z,7.43
2017-12-22T00:01:42.138Z,7.45
2017-12-22T00:02:22.718Z,7.4
2017-12-22T00:03:03.303Z,7.39
2017-12-22T00:03:43.904Z,7.48
2017-12-22T00:04:24.481Z,7.39
2017-12-22T00:05:05.050Z,7.39
2017-12-22T00:05:45.701Z,7.43
2017-12-22T00:06:26.261Z,7.43
2017-12-22T00:07:06.846Z,7.42
2017-12-22T00:07:47.418Z,7.39
2017-12-22T00:08:28.002Z,7.5
2017-12-22T00:09:08.583Z,7.45
2017-12-22T00:09:49.154Z,7.43
2017-12-22T00:10:29.739Z,7.43
2017-12-22T00:11:10.317Z,7.39
2017-12-22T00:11:50.896Z,7.42
2017-12-22T00:12:31.499Z,7.42
2017-12-22T00:13:12.113Z,7.42
2017-12-22T00:13:52.686Z,7.45
2017-12-22T00:14:33.306Z,7.47
2017-12-22T00:15:13.872Z,7.33
2017-12-22T00:15:54.440Z,7.4
2017-12-22T00:16:35.032Z,7.42
2017-12-22T00:17:15.607Z,7.36
2017-12-22T00:17:56.217Z,7.43
2017-12-22T00:18:36.797Z,7.36
2017-12-22T00:19:17.368Z,7.32
2017-12-22T00:19:57.946Z,7.42
2017-12-22T00:20:38.523Z,7.35
2017-12-22T00:21:19.114Z,7.33
2017-12-22T00:21:59.668Z,7.39
2017-12-22T00:22:40.244Z,7.43
2017-12-22T00:23:20.815Z,7.42
2017-12-22T00:24:01.383Z,7.42
2017-12-22T00:24:41.968Z,7.35
2017-12-22T00:25:22.535Z,7.42
2017-12-22T00:26:03.108Z,7.45
2017-12-22T00:26:43.717Z,7.4
2017-12-22T00:27:24.320Z,7.4
2017-12-22T00:28:04.874Z,7.31
2017-12-22T00:28:45.437Z,7.33
2017-12-22T00:29:26.000Z,7.4
2017-12-22T00:30:06.580Z,7.33
2017-12-22T00:30:47.164Z,7.39
2017-12-22T00:31:27.753Z,7.4
2017-12-22T00:32:08.330Z,7.42
2017-12-22T00:32:48.905Z,7.43
2017-12-22T00:33:29.466Z,7.43
2017-12-22T00:34:10.055Z,7.39
2017-12-22T00:34:50.643Z,7.47
2017-12-22T00:35:31.234Z,7.36
2017-12-22T00:36:11.795Z,7.36
2017-12-22T00:36:52.404Z,7.38
2017-12-22T00:37:32.986Z,7.35
2017-12-22T00:38:13.604Z,7.32
2017-12-22T00:38:54.123Z,7.38
2017-12-22T00:39:34.691Z,7.33
2017-12-22T00:40:15.251Z,7.36
2017-12-22T00:40:55.811Z,7.21
2017-12-22T00:41:36.387Z,7.29
2017-12-22T00:42:16.940Z,7.32
2017-12-22T00:42:57.506Z,7.31
2017-12-22T00:43:38.099Z,7.31
2017-12-22T00:44:18.661Z,7.29
2017-12-22T00:44:59.215Z,7.21
2017-12-22T00:45:39.781Z,7.29
2017-12-22T00:46:20.361Z,7.32
2017-12-22T00:47:00.925Z,7.33
2017-12-22T00:47:41.479Z,7.31
2017-12-22T00:48:22.072Z,7.29
2017-12-22T00:49:02.640Z,7.35
2017-12-22T00:49:43.213Z,7.28
2017-12-22T00:50:23.788Z,7.31
2017-12-22T00:51:04.357Z,7.31
2017-12-22T00:51:44.932Z,7.29
2017-12-22T00:52:25.495Z,7.2
2017-12-22T00:53:06.071Z,7.24
2017-12-22T00:53:46.648Z,7.2
2017-12-22T00:54:27.215Z,7.17
2017-12-22T00:55:07.800Z,7.32
2017-12-22T00:55:48.377Z,7.2
2017-12-22T00:56:28.966Z,7.31
2017-12-22T00:57:09.577Z,7.21
2017-12-22T00:57:50.145Z,7.17
2017-12-22T00:58:30.715Z,7.25
2017-12-22T00:59:11.285Z,7.24
2017-12-22T00:59:51.866Z,7.35
2017-12-22T01:00:32.426Z,7.29
2017-12-22T01:01:13.002Z,7.17
2017-12-22T01:01:53.569Z,7.21
2017-12-22T01:02:34.140Z,7.17
2017-12-22T01:03:14.723Z,7.17
2017-12-22T01:03:55.352Z,7.2
2017-12-22T01:04:35.860Z,7.2
2017-12-22T01:05:16.427Z,7.36
2017-12-22T01:05:57.029Z,7.21
2017-12-22T01:06:37.591Z,7.35
2017-12-22T01:07:18.163Z,7.31
2017-12-22T01:07:58.779Z,7.23
2017-12-22T01:08:39.356Z,7.29
2017-12-22T01:09:19.920Z,7.25
2017-12-22T01:10:00.479Z,7.25
2017-12-22T01:10:41.099Z,7.31
2017-12-22T01:11:21.676Z,7.28
2017-12-22T01:12:02.257Z,7.32
2017-12-22T01:12:42.816Z,7.31
2017-12-22T01:13:23.407Z,7.32
2017-12-22T01:14:03.954Z,7.32
2017-12-22T01:14:44.521Z,7.29
2017-12-22T01:15:25.072Z,7.29
2017-12-22T01:16:05.649Z,7.29
2017-12-22T01:16:46.233Z,7.21
2017-12-22T01:17:26.810Z,7.2
2017-12-22T01:18:07.373Z,7.24
2017-12-22T01:18:47.952Z,7.35
2017-12-22T01:19:28.533Z,7.25
2017-12-22T01:20:09.121Z,7.29
2017-12-22T01:20:49.701Z,7.32
2017-12-22T01:21:30.327Z,7.18
2017-12-22T01:22:10.911Z,7.2
2017-12-22T01:22:51.471Z,7.17
2017-12-22T01:23:32.045Z,7.21
2017-12-22T01:24:12.606Z,7.15
2017-12-22T01:24:53.181Z,7.29
2017-12-22T01:25:33.743Z,7.21
2017-12-22T01:26:14.312Z,7.2
2017-12-22T01:26:54.885Z,7.18
2017-12-22T01:27:35.475Z,7.28
2017-12-22T01:28:16.056Z,7.36
2017-12-22T01:28:56.620Z,7.28
2017-12-22T01:29:37.239Z,7.29
2017-12-22T01:30:17.799Z,7.31
2017-12-22T01:30:58.361Z,7.23
2017-12-22T01:31:38.936Z,7.33
2017-12-22T01:32:19.522Z,7.18
2017-12-22T01:33:00.072Z,7.15
2017-12-22T01:33:40.630Z,7.15
2017-12-22T01:34:21.194Z,7.18
2017-12-22T01:35:01.755Z,7.23
2017-12-22T01:35:42.324Z,7.17
2017-12-22T01:36:22.897Z,7.33
2017-12-22T01:37:03.506Z,7.33
2017-12-22T01:37:44.064Z,7.35
2017-12-22T01:38:24.646Z,7.28
2017-12-22T01:39:05.264Z,7.33
2017-12-22T01:39:45.832Z,7.25
2017-12-22T01:40:26.400Z,7.29
2017-12-22T01:41:06.997Z,7.31
2017-12-22T01:41:47.572Z,7.2
2017-12-22T01:42:28.130Z,7.25
2017-12-22T01:43:08.725Z,7.29
2017-12-22T01:43:49.330Z,7.25
2017-12-22T01:44:29.893Z,7.33
2017-12-22T01:45:10.458Z,7.21
2017-12-22T01:45:58.312Z,7.35
2017-12-22T01:46:38.882Z,7.29
2017-12-22T01:47:19.457Z,7.31
2017-12-22T01:48:00.036Z,7.31
2017-12-22T01:48:40.603Z,7.31
2017-12-22T01:49:21.182Z,7.29
2017-12-22T01:50:01.790Z,7.25
2017-12-22T01:50:42.361Z,7.31
2017-12-22T01:51:22.948Z,7.33
2017-12-22T01:52:03.524Z,7.32
2017-12-22T01:52:44.087Z,7.36
2017-12-22T01:53:24.651Z,7.31
2017-12-22T01:54:05.244Z,7.33
2017-12-22T01:54:45.845Z,7.39
2017-12-22T01:55:26.418Z,7.31
2017-12-22T01:56:06.999Z,7.32
2017-12-22T01:56:47.595Z,7.32
2017-12-22T01:57:28.194Z,7.35
2017-12-22T01:58:08.784Z,7.33
2017-12-22T01:58:49.395Z,7.32
2017-12-22T01:59:29.966Z,7.32
2017-12-22T02:00:10.555Z,7.36
2017-12-22T02:00:51.140Z,7.31
2017-12-22T02:01:31.708Z,7.31
2017-12-22T02:02:12.292Z,7.35
2017-12-22T02:02:52.870Z,7.33
2017-12-22T02:03:33.452Z,7.36
2017-12-22T02:04:14.030Z,7.33
2017-12-22T02:04:54.598Z,7.35
2017-12-22T02:05:35.160Z,7.33
2017-12-22T02:06:15.715Z,7.32
2017-12-22T02:06:56.280Z,7.35
2017-12-22T02:07:36.866Z,7.33
2017-12-22T02:08:17.451Z,7.29
2017-12-22T02:08:58.026Z,7.33
2017-12-22T02:09:38.613Z,7.31
2017-12-22T02:10:19.234Z,7.29
2017-12-22T02:10:59.791Z,7.31
2017-12-22T02:11:40.378Z,7.33
2017-12-22T02:12:20.959Z,7.35
2017-12-22T02:13:01.576Z,7.36
2017-12-22T02:13:42.164Z,7.36
2017-12-22T02:14:22.748Z,7.36
2017-12-22T02:15:03.312Z,7.36
2017-12-22T02:15:43.884Z,7.36
2017-12-22T02:16:24.480Z,7.36
2017-12-22T02:17:05.033Z,7.35
2017-12-22T02:17:45.605Z,7.36
2017-12-22T02:18:26.192Z,7.32
2017-12-22T02:19:06.760Z,7.36
2017-12-22T02:19:47.362Z,7.33
2017-12-22T02:20:27.914Z,7.35
2017-12-22T02:21:08.482Z,7.42
2017-12-22T02:21:49.047Z,7.36
2017-12-22T02:22:29.622Z,7.33
2017-12-22T02:23:10.187Z,7.39
2017-12-22T02:23:50.764Z,7.39
2017-12-22T02:24:31.354Z,7.39
2017-12-22T02:25:11.984Z,7.39
2017-12-22T02:25:52.564Z,7.42
2017-12-22T02:26:33.172Z,7.38
2017-12-22T02:27:13.757Z,7.45
2017-12-22T02:27:54.335Z,7.4
2017-12-22T02:28:34.906Z,7.43
2017-12-22T02:29:15.471Z,7.35
2017-12-22T02:29:56.043Z,7.43
2017-12-22T02:30:36.609Z,7.42
2017-12-22T02:31:17.199Z,7.43
2017-12-22T02:31:57.773Z,7.45
2017-12-22T02:32:38.351Z,7.36
2017-12-22T02:33:18.915Z,7.4
2017-12-22T02:33:59.471Z,7.43
2017-12-22T02:34:40.048Z,7.47
2017-12-22T02:35:20.635Z,7.43
2017-12-22T02:36:01.206Z,7.42
2017-12-22T02:36:41.784Z,7.33
2017-12-22T02:37:22.346Z,7.42
2017-12-22T02:38:02.933Z,7.4
2017-12-22T02:38:43.508Z,7.45
2017-12-22T02:39:24.060Z,7.45
2017-12-22T02:40:04.624Z,7.5
2017-12-22T02:40:45.192Z,7.42
2017-12-22T02:41:25.769Z,7.38
2017-12-22T02:42:06.346Z,7.4
2017-12-22T02:42:46.915Z,7.36
2017-12-22T02:43:27.514Z,7.43
2017-12-22T02:44:08.131Z,7.42
2017-12-22T02:44:48.692Z,7.4
2017-12-22T02:45:29.251Z,7.5
2017-12-22T02:46:09.820Z,7.48
2017-12-22T02:46:50.443Z,7.43
2017-12-22T02:47:31.008Z,7.5
2017-12-22T02:48:11.584Z,7.43
2017-12-22T02:48:52.201Z,7.45
2017-12-22T02:49:32.767Z,7.39
2017-12-22T02:50:13.333Z,7.4
2017-12-22T02:50:53.913Z,7.4
2017-12-22T02:51:34.490Z,7.42
2017-12-22T02:52:15.053Z,7.36
2017-12-22T02:52:55.641Z,7.43
2017-12-22T02:53:36.212Z,7.4
2017-12-22T02:54:16.786Z,7.4
2017-12-22T02:54:57.362Z,7.43
2017-12-22T02:55:37.920Z,7.48
2017-12-22T02:56:18.494Z,7.45
2017-12-22T02:56:59.065Z,7.4
2017-12-22T02:57:39.631Z,7.42
2017-12-22T02:58:20.195Z,7.45
2017-12-22T02:59:00.764Z,7.43
2017-12-22T02:59:41.326Z,7.43
2017-12-22T03:00:21.903Z,7.5
2017-12-22T03:01:02.483Z,7.45
2017-12-22T03:01:43.091Z,7.45
2017-12-22T03:02:23.653Z,7.43
2017-12-22T03:03:04.256Z,7.45
2017-12-22T03:03:44.826Z,7.43
2017-12-22T03:04:25.398Z,7.39
2017-12-22T03:05:06.006Z,7.39
2017-12-22T03:05:46.583Z,7.54
2017-12-22T03:06:27.148Z,7.43
2017-12-22T03:07:07.709Z,7.43
2017-12-22T03:07:48.304Z,7.43
2017-12-22T03:08:28.876Z,7.47
2017-12-22T03:09:09.456Z,7.47
2017-12-22T03:09:50.034Z,7.42
2017-12-22T03:10:30.607Z,7.43
2017-12-22T03:11:11.187Z,7.45
2017-12-22T03:11:51.763Z,7.39
2017-12-22T03:12:32.336Z,7.47
2017-12-22T03:13:12.914Z,7.36
2017-12-22T03:13:53.484Z,7.43
2017-12-22T03:14:34.049Z,7.43
2017-12-22T03:15:14.626Z,7.47
2017-12-22T03:15:55.187Z,7.42
2017-12-22T03:16:35.743Z,7.43
2017-12-22T03:17:16.326Z,7.42
2017-12-22T03:17:56.888Z,7.43
2017-12-22T03:18:37.465Z,7.45
2017-12-22T03:19:18.026Z,7.4
2017-12-22T03:19:58.618Z,7.39
2017-12-22T03:20:39.197Z,7.43
2017-12-22T03:21:19.805Z,7.45
2017-12-22T03:22:00.374Z,7.47
2017-12-22T03:22:40.956Z,7.48
2017-12-22T03:23:21.535Z,7.42
2017-12-22T03:24:02.130Z,7.47
2017-12-22T03:24:42.743Z,7.4
2017-12-22T03:25:23.306Z,7.5
2017-12-22T03:26:03.883Z,7.4
2017-12-22T03:26:44.500Z,7.48
2017-12-22T03:27:25.086Z,7.36
2017-12-22T03:28:05.662Z,7.45
2017-12-22T03:28:46.231Z,7.47
2017-12-22T03:29:26.811Z,7.43
2017-12-22T03:30:07.396Z,7.43
2017-12-22T03:30:47.960Z,7.45
2017-12-22T03:31:28.532Z,7.47
2017-12-22T03:32:09.108Z,7.48
2017-12-22T03:32:49.700Z,7.43
2017-12-22T03:33:30.269Z,7.42
2017-12-22T03:34:10.841Z,7.45
2017-12-22T03:34:51.422Z,7.56
2017-12-22T03:35:31.997Z,7.54
2017-12-22T03:36:12.560Z,7.43
2017-12-22T03:36:53.147Z,7.47
2017-12-22T03:37:33.707Z,7.47
2017-12-22T03:38:14.277Z,7.54
2017-12-22T03:38:54.876Z,7.5
2017-12-22T03:39:35.448Z,7.51
2017-12-22T03:40:16.033Z,7.56
2017-12-22T03:40:56.630Z,7.53
2017-12-22T03:41:37.210Z,7.53
2017-12-22T03:42:17.778Z,7.53
2017-12-22T03:42:58.362Z,7.51
2017-12-22T03:43:38.937Z,7.58
2017-12-22T03:44:19.533Z,7.54
2017-12-22T03:45:00.101Z,7.54
2017-12-22T03:45:40.669Z,7.53
2017-12-22T03:46:21.245Z,7.53
2017-12-22T03:47:01.825Z,7.56
2017-12-22T03:47:42.397Z,7.54
2017-12-22T03:48:22.963Z,7.54
2017-12-22T03:49:03.532Z,7.53
2017-12-22T03:49:44.105Z,7.48
2017-12-22T03:50:24.714Z,7.53
2017-12-22T03:51:05.288Z,7.51
2017-12-22T03:51:45.865Z,7.53
2017-12-22T03:52:26.427Z,7.54
2017-12-22T03:53:07.036Z,7.54
2017-12-22T03:53:47.610Z,7.5
2017-12-22T03:54:28.223Z,7.53
2017-12-22T03:55:08.805Z,7.47
2017-12-22T03:55:49.379Z,7.53
2017-12-22T03:56:29.988Z,7.47
2017-12-22T03:57:10.554Z,7.51
2017-12-22T03:57:51.130Z,7.54
2017-12-22T03:58:31.701Z,7.54
2017-12-22T03:59:12.296Z,7.48
2017-12-22T03:59:52.860Z,7.42
2017-12-22T04:00:33.433Z,7.45
2017-12-22T04:01:14.013Z,7.47
2017-12-22T04:01:54.585Z,7.45
2017-12-22T04:02:35.168Z,7.43
2017-12-22T04:03:15.716Z,7.42
2017-12-22T04:03:56.286Z,7.43
2017-12-22T04:04:36.850Z,7.4
2017-12-22T04:05:17.424Z,7.45
2017-12-22T04:05:58.011Z,7.38
2017-12-22T04:06:38.568Z,7.4
2017-12-22T04:07:19.144Z,7.48
2017-12-22T04:07:59.765Z,7.4
2017-12-22T04:08:40.336Z,7.45
2017-12-22T04:09:20.920Z,7.43
2017-12-22T04:10:01.480Z,7.4
2017-12-22T04:10:42.078Z,7.45
2017-12-22T04:11:22.645Z,7.43
2017-12-22T04:12:03.212Z,7.48
2017-12-22T04:12:43.785Z,7.5
2017-12-22T04:13:24.367Z,7.48
2017-12-22T04:14:04.924Z,7.48
2017-12-22T04:14:45.525Z,7.57
2017-12-22T04:15:26.139Z,7.5
2017-12-22T04:16:06.709Z,7.48
2017-12-22T04:16:47.277Z,7.45
2017-12-22T04:17:27.904Z,7.43
2017-12-22T04:18:08.497Z,7.39
2017-12-22T04:18:49.126Z,7.47
2017-12-22T04:19:29.699Z,7.43
2017-12-22T04:20:10.277Z,7.4
2017-12-22T04:20:50.837Z,7.35
2017-12-22T04:21:31.404Z,7.42
2017-12-22T04:22:11.962Z,7.36
2017-12-22T04:22:52.565Z,7.43
2017-12-22T04:23:33.138Z,7.45
2017-12-22T04:24:13.693Z,7.43
2017-12-22T04:24:54.274Z,7.47
2017-12-22T04:25:34.879Z,7.45
2017-12-22T04:26:15.438Z,7.4
2017-12-22T04:26:56.004Z,7.43
2017-12-22T04:27:36.574Z,7.4
2017-12-22T04:28:17.169Z,7.4
2017-12-22T04:28:57.696Z,7.45
2017-12-22T04:29:38.289Z,7.45
2017-12-22T04:30:18.879Z,7.38
2017-12-22T04:30:59.444Z,7.47
2017-12-22T04:31:40.044Z,7.43
2017-12-22T04:32:20.638Z,7.47
2017-12-22T04:33:01.234Z,7.38
2017-12-22T04:33:41.803Z,7.48
2017-12-22T04:34:22.367Z,7.38
2017-12-22T04:35:02.964Z,7.45
2017-12-22T04:35:43.534Z,7.45
2017-12-22T04:36:24.143Z,7.43
2017-12-22T04:37:04.746Z,7.42
2017-12-22T04:37:45.307Z,7.56
2017-12-22T04:38:25.879Z,7.51
2017-12-22T04:39:06.474Z,7.56
2017-12-22T04:39:47.048Z,7.56
2017-12-22T04:40:27.633Z,7.56
2017-12-22T04:41:08.214Z,7.51
2017-12-22T04:41:48.783Z,7.51
2017-12-22T04:42:29.381Z,7.53
2017-12-22T04:43:09.949Z,7.54
2017-12-22T04:43:50.576Z,7.56
2017-12-22T04:44:31.157Z,7.57
2017-12-22T04:45:11.721Z,7.57
2017-12-22T04:45:52.290Z,7.5
2017-12-22T04:46:32.872Z,7.56
2017-12-22T04:47:13.452Z,7.51
2017-12-22T04:47:54.035Z,7.56
2017-12-22T04:48:34.599Z,7.54
2017-12-22T04:49:15.171Z,7.53
2017-12-22T04:49:55.774Z,7.56
2017-12-22T04:50:36.343Z,7.63
2017-12-22T04:51:16.914Z,7.53
2017-12-22T04:51:57.482Z,7.63
2017-12-22T04:52:38.054Z,7.61
2017-12-22T04:53:18.619Z,7.56
2017-12-22T04:53:59.199Z,7.61
2017-12-22T04:54:39.760Z,7.58
2017-12-22T04:55:20.336Z,7.6
2017-12-22T04:56:00.905Z,7.63
2017-12-22T04:56:41.485Z,7.66
2017-12-22T04:57:22.061Z,7.61
2017-12-22T04:58:02.618Z,7.61
2017-12-22T04:58:43.228Z,7.6
2017-12-22T04:59:23.825Z,7.61
2017-12-22T05:00:04.389Z,7.61
2017-12-22T05:00:44.950Z,7.63
2017-12-22T05:01:25.511Z,7.6
2017-12-22T05:02:06.102Z,7.61
2017-12-22T05:02:46.714Z,7.58
2017-12-22T05:03:27.298Z,7.57
2017-12-22T05:04:07.853Z,7.61
2017-12-22T05:04:48.447Z,7.53
2017-12-22T05:05:29.039Z,7.56
2017-12-22T05:06:09.655Z,7.61
2017-12-22T05:06:50.222Z,7.51
2017-12-22T05:07:30.792Z,7.6
2017-12-22T05:08:11.368Z,7.66
2017-12-22T05:08:51.962Z,7.6
2017-12-22T05:09:32.533Z,7.57
2017-12-22T05:10:13.145Z,7.63
2017-12-22T05:10:53.695Z,7.63
2017-12-22T05:11:34.275Z,7.58
2017-12-22T05:12:14.826Z,7.6
2017-12-22T05:12:55.456Z,7.7
2017-12-22T05:13:36.028Z,7.67
2017-12-22T05:14:16.605Z,7.61
2017-12-22T05:14:57.162Z,7.58
2017-12-22T05:15:37.744Z,7.61
2017-12-22T05:16:18.329Z,7.69
2017-12-22T05:16:58.911Z,7.63
2017-12-22T05:17:39.522Z,7.63
2017-12-22T05:18:20.133Z,7.61
2017-12-22T05:19:00.699Z,7.73
2017-12-22T05:19:41.288Z,7.61
2017-12-22T05:20:21.834Z,7.57
2017-12-22T05:21:02.431Z,7.63
2017-12-22T05:21:42.993Z,7.67
2017-12-22T05:22:23.553Z,7.7
2017-12-22T05:23:04.219Z,7.67
2017-12-22T05:23:44.804Z,7.7
2017-12-22T05:24:25.386Z,7.66
2017-12-22T05:25:05.967Z,7.76
2017-12-22T05:25:46.541Z,7.7
2017-12-22T05:26:27.117Z,7.73
2017-12-22T05:27:07.756Z,7.76
2017-12-22T05:27:48.315Z,7.76
2017-12-22T05:28:28.895Z,7.75
2017-12-22T05:29:09.502Z,7.76
2017-12-22T05:29:50.085Z,7.72
2017-12-22T05:30:30.670Z,7.77
2017-12-22T05:31:11.286Z,7.73
2017-12-22T05:31:51.914Z,7.73
2017-12-22T05:32:32.619Z,7.77
2017-12-22T05:33:13.208Z,7.72
2017-12-22T05:33:53.777Z,7.76
2017-12-22T05:34:34.577Z,7.73
2017-12-22T05:35:15.268Z,7.7
2017-12-22T05:35:55.855Z,7.66
2017-12-22T05:36:36.417Z,7.73
2017-12-22T05:37:17.044Z,7.69
2017-12-22T05:37:57.610Z,7.73
2017-12-22T05:38:38.187Z,7.76
2017-12-22T05:39:18.813Z,7.73
2017-12-22T05:39:59.428Z,7.76
2017-12-22T05:40:39.994Z,7.77
2017-12-22T05:41:20.580Z,7.73
2017-12-22T05:42:01.151Z,7.77
2017-12-22T05:42:41.733Z,7.79
2017-12-22T05:43:22.315Z,7.72
2017-12-22T05:44:02.888Z,7.76
2017-12-22T05:44:43.461Z,7.73
2017-12-22T05:45:24.038Z,7.72
2017-12-22T05:46:04.603Z,7.77
2017-12-22T05:46:45.188Z,7.87
2017-12-22T05:47:25.745Z,7.87
2017-12-22T05:48:06.312Z,7.88
2017-12-22T05:48:46.905Z,7.88
2017-12-22T05:49:27.478Z,7.8
2017-12-22T05:50:08.053Z,7.87
2017-12-22T05:50:48.641Z,7.7
2017-12-22T05:51:29.200Z,7.72
2017-12-22T05:52:09.791Z,7.76
2017-12-22T05:52:50.373Z,7.73
2017-12-22T05:53:30.957Z,7.77
2017-12-22T05:54:11.529Z,7.73
2017-12-22T05:54:52.101Z,7.82
2017-12-22T05:55:32.672Z,7.8
2017-12-22T05:56:13.236Z,7.76
2017-12-22T05:56:53.825Z,7.77
2017-12-22T05:57:34.387Z,7.9
2017-12-22T05:58:15.001Z,7.85
2017-12-22T05:58:55.578Z,7.82
2017-12-22T05:59:36.131Z,7.87
2017-12-22T06:00:16.723Z,7.77
2017-12-22T06:00:57.283Z,7.88
2017-12-22T06:01:37.854Z,7.9
2017-12-22T06:02:18.499Z,7.76
2017-12-22T06:02:59.027Z,7.83
2017-12-22T06:03:39.599Z,7.9
2017-12-22T06:04:20.188Z,7.94
2017-12-22T06:05:00.774Z,7.91
2017-12-22T06:05:41.369Z,7.85
2017-12-22T06:06:21.960Z,7.82
2017-12-22T06:07:02.537Z,7.77
2017-12-22T06:07:43.102Z,7.93
2017-12-22T06:08:23.675Z,7.8
2017-12-22T06:09:04.297Z,7.91
2017-12-22T06:09:44.876Z,7.85
2017-12-22T06:10:25.421Z,7.85
2017-12-22T06:11:05.996Z,7.87
2017-12-22T06:11:46.555Z,7.91
2017-12-22T06:12:27.162Z,7.75
2017-12-22T06:13:07.820Z,7.85
2017-12-22T06:13:48.389Z,7.77
2017-12-22T06:14:28.990Z,7.9
2017-12-22T06:15:09.601Z,7.79
2017-12-22T06:15:50.158Z,7.77
2017-12-22T06:16:30.769Z,7.88
2017-12-22T06:17:11.354Z,7.93
2017-12-22T06:17:51.973Z,7.85
2017-12-22T06:18:32.724Z,7.91
2017-12-22T06:19:13.303Z,7.77
2017-12-22T06:19:53.881Z,7.93
2017-12-22T06:20:34.475Z,7.88
2017-12-22T06:21:15.094Z,7.83
2017-12-22T06:21:55.641Z,7.91
2017-12-22T06:22:36.204Z,7.88
2017-12-22T06:23:16.807Z,7.8
2017-12-22T06:23:57.375Z,7.75
2017-12-22T06:24:38.000Z,7.77
2017-12-22T06:25:18.586Z,7.91
2017-12-22T06:25:59.208Z,7.88
2017-12-22T06:26:39.784Z,7.9
2017-12-22T06:27:20.356Z,7.88
2017-12-22T06:28:00.927Z,7.87
2017-12-22T06:28:41.520Z,7.87
2017-12-22T06:29:22.092Z,7.87
2017-12-22T06:30:02.690Z,7.87
2017-12-22T06:30:43.274Z,7.83
2017-12-22T06:31:23.836Z,7.9
2017-12-22T06:32:04.391Z,7.87
2017-12-22T06:32:45.011Z,7.85
2017-12-22T06:33:25.581Z,7.77
2017-12-22T06:34:06.138Z,7.88
2017-12-22T06:34:46.701Z,7.77
2017-12-22T06:35:27.267Z,7.88
2017-12-22T06:36:07.846Z,7.85
2017-12-22T06:36:48.432Z,7.88
2017-12-22T06:37:29.017Z,7.91
2017-12-22T06:38:09.638Z,7.88
2017-12-22T06:38:50.290Z,7.77
2017-12-22T06:39:30.884Z,7.88
2017-12-22T06:40:11.465Z,7.9
2017-12-22T06:40:52.031Z,7.83
2017-12-22T06:41:32.597Z,7.93
2017-12-22T06:42:13.175Z,7.91
2017-12-22T06:42:53.749Z,7.9
2017-12-22T06:43:34.325Z,7.87
2017-12-22T06:44:14.897Z,7.87
2017-12-22T06:44:55.501Z,7.88
2017-12-22T06:45:36.121Z,7.9
2017-12-22T06:46:16.688Z,7.91
2017-12-22T06:46:57.268Z,7.82
2017-12-22T06:47:37.833Z,7.9
2017-12-22T06:48:18.406Z,7.9
2017-12-22T06:48:58.976Z,7.87
2017-12-22T06:49:39.556Z,7.82
2017-12-22T06:50:20.154Z,7.85
2017-12-22T06:51:00.720Z,7.9
2017-12-22T06:51:41.338Z,7.87
2017-12-22T06:52:21.896Z,7.85
2017-12-22T06:53:02.477Z,7.83
2017-12-22T06:53:43.043Z,7.88
2017-12-22T06:54:23.628Z,7.83
2017-12-22T06:55:04.207Z,7.94
2017-12-22T06:55:44.781Z,7.93
2017-12-22T06:56:25.333Z,7.87
2017-12-22T06:57:05.897Z,7.98
2017-12-22T06:57:46.475Z,7.93
2017-12-22T06:58:27.089Z,8.03
2017-12-22T06:59:07.664Z,8
2017-12-22T06:59:48.233Z,8.03
2017-12-22T07:00:28.849Z,7.94
2017-12-22T07:01:09.446Z,7.97
2017-12-22T07:01:50.029Z,8.08
2017-12-22T07:02:30.587Z,7.97
2017-12-22T07:03:11.163Z,8.03
2017-12-22T07:03:51.743Z,7.98
2017-12-22T07:04:32.348Z,8.03
2017-12-22T07:05:12.937Z,8.05
2017-12-22T07:05:53.527Z,8.01
2017-12-22T07:06:34.103Z,8.09
2017-12-22T07:07:14.688Z,8.03
2017-12-22T07:07:55.248Z,8.12
2017-12-22T07:08:35.858Z,8.09
2017-12-22T07:09:16.422Z,7.98
2017-12-22T07:09:57.010Z,7.97
2017-12-22T07:10:37.592Z,8.05
2017-12-22T07:11:18.150Z,8
2017-12-22T07:11:58.702Z,8.09
2017-12-22T07:12:39.283Z,8.05
2017-12-22T07:13:19.896Z,8.01
2017-12-22T07:14:00.464Z,8.03
2017-12-22T07:14:41.043Z,7.98
2017-12-22T07:15:21.657Z,8.05
2017-12-22T07:16:02.215Z,8.05
2017-12-22T07:16:42.816Z,8.01
2017-12-22T07:17:23.360Z,8.01
2017-12-22T07:18:03.932Z,8.03
2017-12-22T07:18:44.504Z,8
2017-12-22T07:19:25.084Z,7.95
2017-12-22T07:20:05.670Z,7.93
2017-12-22T07:20:46.254Z,8
2017-12-22T07:21:26.847Z,7.97
2017-12-22T07:22:07.409Z,7.94
2017-12-22T07:22:47.984Z,7.95
2017-12-22T07:23:28.564Z,7.85
2017-12-22T07:24:09.187Z,7.97
2017-12-22T07:24:49.774Z,7.87
2017-12-22T07:25:30.326Z,7.97
2017-12-22T07:26:10.978Z,7.83
2017-12-22T07:26:51.517Z,7.87
2017-12-22T07:27:32.208Z,7.82
2017-12-22T07:28:12.817Z,7.82
2017-12-22T07:28:53.411Z,7.9
2017-12-22T07:29:34.002Z,7.9
2017-12-22T07:30:14.577Z,7.88
2017-12-22T07:30:55.175Z,7.75
2017-12-22T07:31:35.733Z,7.77
2017-12-22T07:32:16.304Z,7.75
2017-12-22T07:32:56.958Z,7.87
2017-12-22T07:33:37.506Z,7.8
2017-12-22T07:34:18.070Z,7.79
2017-12-22T07:34:58.640Z,7.79
2017-12-22T07:35:39.225Z,7.88
2017-12-22T07:36:19.849Z,7.9
2017-12-22T07:37:00.410Z,7.82
2017-12-22T07:37:40.976Z,7.8
2017-12-22T07:38:21.558Z,7.87
2017-12-22T07:39:02.125Z,7.93
2017-12-22T07:39:42.695Z,7.77
2017-12-22T07:40:23.263Z,7.83
2017-12-22T07:41:03.839Z,7.75
2017-12-22T07:41:44.429Z,7.85
2017-12-22T07:42:24.992Z,7.91
2017-12-22T07:43:05.566Z,7.77
2017-12-22T07:43:46.135Z,7.77
2017-12-22T07:44:26.718Z,7.8
2017-12-22T07:45:07.301Z,7.79
2017-12-22T07:45:47.866Z,7.87
2017-12-22T07:46:28.458Z,7.77
2017-12-22T07:47:09.053Z,7.82
2017-12-22T07:47:49.612Z,7.91
2017-12-22T07:48:30.242Z,7.9
2017-12-22T07:49:10.889Z,7.88
2017-12-22T07:49:51.433Z,7.87
2017-12-22T07:50:32.034Z,7.85
2017-12-22T07:51:12.603Z,7.83
2017-12-22T07:51:53.214Z,7.77
2017-12-22T07:52:33.782Z,7.77
2017-12-22T07:53:14.423Z,7.87
2017-12-22T07:53:54.979Z,7.77
2017-12-22T07:54:35.583Z,7.85
2017-12-22T07:55:16.146Z,7.79
2017-12-22T07:55:56.712Z,7.75
2017-12-22T07:56:37.310Z,7.85
2017-12-22T07:57:17.891Z,7.82
2017-12-22T07:57:58.484Z,7.77
2017-12-22T07:58:39.051Z,7.75
2017-12-22T07:59:19.686Z,7.75
2017-12-22T08:00:00.278Z,7.72
2017-12-22T08:00:40.870Z,7.72
2017-12-22T08:01:21.443Z,7.77
2017-12-22T08:02:02.009Z,7.73
2017-12-22T08:02:42.574Z,7.72
2017-12-22T08:03:23.198Z,7.72
2017-12-22T08:04:03.756Z,7.77
2017-12-22T08:04:44.394Z,7.75
2017-12-22T08:05:24.990Z,7.69
2017-12-22T08:06:05.602Z,7.73
2017-12-22T08:06:46.228Z,7.73
2017-12-22T08:07:26.805Z,7.91
2017-12-22T08:08:07.373Z,7.77
2017-12-22T08:08:47.950Z,7.82
2017-12-22T08:09:28.523Z,7.85
2017-12-22T08:10:09.099Z,7.8
2017-12-22T08:10:49.667Z,7.83
2017-12-22T08:11:30.236Z,7.8
2017-12-22T08:12:10.892Z,7.79
2017-12-22T08:12:51.480Z,7.91
2017-12-22T08:13:32.073Z,7.8
2017-12-22T08:14:12.651Z,7.88
2017-12-22T08:14:53.229Z,7.88
2017-12-22T08:15:33.814Z,7.88
2017-12-22T08:16:14.383Z,7.87
2017-12-22T08:16:54.945Z,7.9
2017-12-22T08:17:35.513Z,7.82
2017-12-22T08:18:16.114Z,7.9
2017-12-22T08:18:56.713Z,7.9
2017-12-22T08:19:37.339Z,7.9
2017-12-22T08:20:17.901Z,7.87
2017-12-22T08:20:58.522Z,7.87
2017-12-22T08:21:39.107Z,7.82
2017-12-22T08:22:19.689Z,7.9
2017-12-22T08:23:00.281Z,7.9
2017-12-22T08:23:40.839Z,7.88
2017-12-22T08:24:21.414Z,7.87
2017-12-22T08:25:01.984Z,7.83
2017-12-22T08:25:42.545Z,7.88
2017-12-22T08:26:23.147Z,7.91
2017-12-22T08:27:03.709Z,7.87
2017-12-22T08:27:44.275Z,7.91
2017-12-22T08:28:24.858Z,7.93
2017-12-22T08:29:05.435Z,7.87
2017-12-22T08:29:46.034Z,7.91
2017-12-22T08:30:26.613Z,7.82
2017-12-22T08:31:07.227Z,7.9
2017-12-22T08:31:47.829Z,7.85
2017-12-22T08:32:28.431Z,7.93
2017-12-22T08:33:09.039Z,7.87
2017-12-22T08:33:49.651Z,7.77
2017-12-22T08:34:30.234Z,7.79
2017-12-22T08:35:10.821Z,7.88
2017-12-22T08:35:51.393Z,7.88
2017-12-22T08:36:31.998Z,7.93
2017-12-22T08:37:12.599Z,7.88
2017-12-22T08:37:53.206Z,7.85
2017-12-22T08:38:33.803Z,7.9
2017-12-22T08:39:14.378Z,7.95
2017-12-22T08:39:54.936Z,7.9
2017-12-22T08:40:35.532Z,7.83
2017-12-22T08:41:16.316Z,7.9
2017-12-22T08:41:56.899Z,7.93
2017-12-22T08:42:37.509Z,7.95
2017-12-22T08:43:18.073Z,7.97
2017-12-22T08:43:58.692Z,7.87
2017-12-22T08:44:39.329Z,8.03
2017-12-22T08:45:19.893Z,7.91
2017-12-22T08:46:00.462Z,7.97
2017-12-22T08:46:41.029Z,7.91
2017-12-22T08:47:21.598Z,8.08
2017-12-22T08:48:02.181Z,8
2017-12-22T08:48:42.761Z,7.94
2017-12-22T08:49:23.359Z,7.93
2017-12-22T08:50:03.955Z,7.91
2017-12-22T08:50:44.556Z,7.87
2017-12-22T08:51:25.145Z,7.95
2017-12-22T08:52:05.757Z,7.91
2017-12-22T08:52:46.347Z,7.95
2017-12-22T08:53:26.927Z,7.97
2017-12-22T08:54:07.516Z,7.95
2017-12-22T08:54:48.099Z,7.95
2017-12-22T08:55:28.689Z,7.95
2017-12-22T08:56:09.274Z,8.01
2017-12-22T08:56:49.850Z,8.05
2017-12-22T08:57:30.428Z,8.05
2017-12-22T08:58:11.020Z,7.94
2017-12-22T08:58:51.613Z,8.08
2017-12-22T08:59:32.198Z,8.06
2017-12-22T09:00:12.800Z,8.09
2017-12-22T09:00:53.382Z,7.93
2017-12-22T09:01:33.992Z,8.06
2017-12-22T09:02:14.545Z,8.01
2017-12-22T09:02:55.118Z,8.06